sensor_id;sensor_type;location;lat;lon;timestamp;temperature;humidity
19586;DHT22;9939;49.246;9.106;2023-08-06T00:00:26;15.20;99.90
19586;DHT22;9939;49.246;9.106;2023-08-06T00:02:53;15.20;99.90
19586;DHT22;9939;49.246;9.106;2023-08-06T00:05:20;15.10;99.90
19586;DHT22;9939;49.246;9.106;2023-08-06T00:07:50;15.20;99.90
19586;DHT22;9939;49.246;9.106;2023-08-06T00:10:17;15.10;99.90
19586;DHT22;9939;49.246;9.106;2023-08-06T00:12:44;15.10;99.90
19586;DHT22;9939;49.246;9.106;2023-08-06T00:15:11;15.20;99.90
19586;DHT22;9939;49.246;9.106;2023-08-06T00:17:37;15.10;99.90
19586;DHT22;9939;49.246;9.106;2023-08-06T00:20:04;15.00;99.90
19586;DHT22;9939;49.246;9.106;2023-08-06T00:22:33;15.00;99.90
19586;DHT22;9939;49.246;9.106;2023-08-06T00:25:00;15.10;99.90
19586;DHT22;9939;49.246;9.106;2023-08-06T00:27:27;15.10;99.90
19586;DHT22;9939;49.246;9.106;2023-08-06T00:29:53;15.00;99.90
19586;DHT22;9939;49.246;9.106;2023-08-06T00:32:21;14.90;99.90
19586;DHT22;9939;49.246;9.106;2023-08-06T00:34:48;14.90;99.90
19586;DHT22;9939;49.246;9.106;2023-08-06T00:37:19;14.90;99.90
19586;DHT22;9939;49.246;9.106;2023-08-06T00:39:45;14.90;99.90
19586;DHT22;9939;49.246;9.106;2023-08-06T00:42:12;15.00;99.90
19586;DHT22;9939;49.246;9.106;2023-08-06T00:44:39;14.90;99.90
19586;DHT22;9939;49.246;9.106;2023-08-06T00:47:07;15.00;99.90
19586;DHT22;9939;49.246;9.106;2023-08-06T00:49:37;15.00;99.90
19586;DHT22;9939;49.246;9.106;2023-08-06T00:52:05;15.10;99.90
19586;DHT22;9939;49.246;9.106;2023-08-06T00:54:36;15.20;99.90
19586;DHT22;9939;49.246;9.106;2023-08-06T00:57:03;15.30;99.90
19586;DHT22;9939;49.246;9.106;2023-08-06T00:59:31;15.30;99.90
19586;DHT22;9939;49.246;9.106;2023-08-06T01:01:58;15.40;99.90
19586;DHT22;9939;49.246;9.106;2023-08-06T01:04:25;15.50;99.90
19586;DHT22;9939;49.246;9.106;2023-08-06T01:06:57;15.50;99.90
19586;DHT22;9939;49.246;9.106;2023-08-06T01:09:30;15.40;99.90
19586;DHT22;9939;49.246;9.106;2023-08-06T01:12:08;15.30;99.90
19586;DHT22;9939;49.246;9.106;2023-08-06T01:14:48;15.30;99.90
19586;DHT22;9939;49.246;9.106;2023-08-06T01:17:17;15.20;99.90
19586;DHT22;9939;49.246;9.106;2023-08-06T01:19:44;15.40;99.90
19586;DHT22;9939;49.246;9.106;2023-08-06T01:22:11;15.40;99.90
19586;DHT22;9939;49.246;9.106;2023-08-06T01:24:38;15.40;99.90
19586;DHT22;9939;49.246;9.106;2023-08-06T01:27:08;15.40;99.90
19586;DHT22;9939;49.246;9.106;2023-08-06T01:29:39;15.40;99.90
19586;DHT22;9939;49.246;9.106;2023-08-06T01:32:08;15.50;99.90
19586;DHT22;9939;49.246;9.106;2023-08-06T01:34:36;15.50;99.90
19586;DHT22;9939;49.246;9.106;2023-08-06T01:37:05;15.60;99.90
19586;DHT22;9939;49.246;9.106;2023-08-06T01:39:34;15.60;99.90
19586;DHT22;9939;49.246;9.106;2023-08-06T01:42:03;15.60;99.90
19586;DHT22;9939;49.246;9.106;2023-08-06T01:44:30;15.70;99.90
19586;DHT22;9939;49.246;9.106;2023-08-06T01:46:58;15.60;99.90
19586;DHT22;9939;49.246;9.106;2023-08-06T01:49:25;15.70;99.90
19586;DHT22;9939;49.246;9.106;2023-08-06T01:51:53;15.60;99.90
19586;DHT22;9939;49.246;9.106;2023-08-06T01:54:20;15.70;99.90
19586;DHT22;9939;49.246;9.106;2023-08-06T01:56:46;15.70;99.90
19586;DHT22;9939;49.246;9.106;2023-08-06T01:59:13;15.80;99.90
19586;DHT22;9939;49.246;9.106;2023-08-06T02:01:40;15.80;99.90
19586;DHT22;9939;49.246;9.106;2023-08-06T02:04:08;15.70;99.90
19586;DHT22;9939;49.246;9.106;2023-08-06T02:06:34;15.60;99.90
19586;DHT22;9939;49.246;9.106;2023-08-06T02:09:01;15.60;99.90
19586;DHT22;9939;49.246;9.106;2023-08-06T02:11:28;15.50;99.90
19586;DHT22;9939;49.246;9.106;2023-08-06T02:13:55;15.50;99.90
19586;DHT22;9939;49.246;9.106;2023-08-06T02:16:22;15.50;99.90
19586;DHT22;9939;49.246;9.106;2023-08-06T02:18:49;15.50;99.90
19586;DHT22;9939;49.246;9.106;2023-08-06T02:21:15;15.50;99.90
19586;DHT22;9939;49.246;9.106;2023-08-06T02:23:42;15.50;99.90
19586;DHT22;9939;49.246;9.106;2023-08-06T02:26:09;15.60;99.90
19586;DHT22;9939;49.246;9.106;2023-08-06T02:28:36;15.60;99.90
19586;DHT22;9939;49.246;9.106;2023-08-06T02:31:02;15.60;99.90
19586;DHT22;9939;49.246;9.106;2023-08-06T02:33:29;15.60;99.90
19586;DHT22;9939;49.246;9.106;2023-08-06T02:36:00;15.70;99.90
19586;DHT22;9939;49.246;9.106;2023-08-06T02:38:27;15.70;99.90
19586;DHT22;9939;49.246;9.106;2023-08-06T02:40:55;15.60;99.90
19586;DHT22;9939;49.246;9.106;2023-08-06T02:43:23;15.60;99.90
19586;DHT22;9939;49.246;9.106;2023-08-06T02:45:50;15.50;99.90
19586;DHT22;9939;49.246;9.106;2023-08-06T02:48:17;15.50;99.90
19586;DHT22;9939;49.246;9.106;2023-08-06T02:50:45;15.40;99.90
19586;DHT22;9939;49.246;9.106;2023-08-06T02:53:11;15.30;99.90
19586;DHT22;9939;49.246;9.106;2023-08-06T02:55:38;15.30;99.90
19586;DHT22;9939;49.246;9.106;2023-08-06T02:58:12;15.40;99.90
19586;DHT22;9939;49.246;9.106;2023-08-06T03:00:44;15.40;99.90
19586;DHT22;9939;49.246;9.106;2023-08-06T03:03:12;15.40;99.90
19586;DHT22;9939;49.246;9.106;2023-08-06T03:05:52;15.30;99.90
19586;DHT22;9939;49.246;9.106;2023-08-06T03:08:27;15.20;99.90
19586;DHT22;9939;49.246;9.106;2023-08-06T03:10:55;15.30;99.90
19586;DHT22;9939;49.246;9.106;2023-08-06T03:13:21;15.50;99.90
19586;DHT22;9939;49.246;9.106;2023-08-06T03:15:56;15.40;99.90
19586;DHT22;9939;49.246;9.106;2023-08-06T03:18:23;15.30;99.90
19586;DHT22;9939;49.246;9.106;2023-08-06T03:20:52;15.30;99.90
19586;DHT22;9939;49.246;9.106;2023-08-06T03:23:19;15.30;99.90
19586;DHT22;9939;49.246;9.106;2023-08-06T03:25:46;15.20;99.90
19586;DHT22;9939;49.246;9.106;2023-08-06T03:28:13;15.30;99.90
19586;DHT22;9939;49.246;9.106;2023-08-06T03:30:41;15.20;99.90
19586;DHT22;9939;49.246;9.106;2023-08-06T03:33:10;15.30;99.90
19586;DHT22;9939;49.246;9.106;2023-08-06T03:35:37;15.40;99.90
19586;DHT22;9939;49.246;9.106;2023-08-06T03:38:04;15.50;99.90
19586;DHT22;9939;49.246;9.106;2023-08-06T03:40:31;15.50;99.90
19586;DHT22;9939;49.246;9.106;2023-08-06T03:42:59;15.60;99.90
19586;DHT22;9939;49.246;9.106;2023-08-06T03:45:25;15.70;99.90
19586;DHT22;9939;49.246;9.106;2023-08-06T03:47:52;15.60;99.90
19586;DHT22;9939;49.246;9.106;2023-08-06T03:50:20;15.60;99.90
19586;DHT22;9939;49.246;9.106;2023-08-06T03:52:46;15.50;99.90
19586;DHT22;9939;49.246;9.106;2023-08-06T03:55:13;15.50;99.90
19586;DHT22;9939;49.246;9.106;2023-08-06T03:57:40;15.50;99.90
19586;DHT22;9939;49.246;9.106;2023-08-06T04:00:07;15.50;99.90
19586;DHT22;9939;49.246;9.106;2023-08-06T04:02:40;15.50;99.90
19586;DHT22;9939;49.246;9.106;2023-08-06T04:05:08;15.50;99.90
19586;DHT22;9939;49.246;9.106;2023-08-06T04:07:35;15.40;99.90
19586;DHT22;9939;49.246;9.106;2023-08-06T04:10:03;15.30;99.90
19586;DHT22;9939;49.246;9.106;2023-08-06T04:12:30;15.20;99.90
19586;DHT22;9939;49.246;9.106;2023-08-06T04:14:58;15.10;99.90
19586;DHT22;9939;49.246;9.106;2023-08-06T04:17:24;15.00;99.90
19586;DHT22;9939;49.246;9.106;2023-08-06T04:19:52;15.00;99.90
19586;DHT22;9939;49.246;9.106;2023-08-06T04:22:19;14.90;99.90
19586;DHT22;9939;49.246;9.106;2023-08-06T04:24:46;15.10;99.90
19586;DHT22;9939;49.246;9.106;2023-08-06T04:27:13;15.00;99.90
19586;DHT22;9939;49.246;9.106;2023-08-06T04:29:41;15.10;99.90
19586;DHT22;9939;49.246;9.106;2023-08-06T04:32:08;15.10;99.90
19586;DHT22;9939;49.246;9.106;2023-08-06T04:34:39;15.10;99.90
19586;DHT22;9939;49.246;9.106;2023-08-06T04:37:05;15.10;99.90
19586;DHT22;9939;49.246;9.106;2023-08-06T04:39:32;15.10;99.90
19586;DHT22;9939;49.246;9.106;2023-08-06T04:41:59;15.10;99.90
19586;DHT22;9939;49.246;9.106;2023-08-06T04:44:26;15.10;99.90
19586;DHT22;9939;49.246;9.106;2023-08-06T04:46:53;15.10;99.90
19586;DHT22;9939;49.246;9.106;2023-08-06T04:49:20;15.10;99.90
19586;DHT22;9939;49.246;9.106;2023-08-06T04:51:47;15.10;99.90
19586;DHT22;9939;49.246;9.106;2023-08-06T04:54:14;15.10;99.90
19586;DHT22;9939;49.246;9.106;2023-08-06T04:56:41;14.80;99.90
19586;DHT22;9939;49.246;9.106;2023-08-06T04:59:08;14.80;99.90
19586;DHT22;9939;49.246;9.106;2023-08-06T05:01:35;15.00;99.90
19586;DHT22;9939;49.246;9.106;2023-08-06T05:04:02;15.00;99.90
19586;DHT22;9939;49.246;9.106;2023-08-06T05:06:28;14.90;99.90
19586;DHT22;9939;49.246;9.106;2023-08-06T05:08:55;14.80;99.90
19586;DHT22;9939;49.246;9.106;2023-08-06T05:11:22;14.60;99.90
19586;DHT22;9939;49.246;9.106;2023-08-06T05:13:48;14.40;99.90
19586;DHT22;9939;49.246;9.106;2023-08-06T05:16:15;14.30;99.90
19586;DHT22;9939;49.246;9.106;2023-08-06T05:18:42;14.10;99.90
19586;DHT22;9939;49.246;9.106;2023-08-06T05:21:09;14.00;99.90
19586;DHT22;9939;49.246;9.106;2023-08-06T05:23:35;14.00;99.90
19586;DHT22;9939;49.246;9.106;2023-08-06T05:26:02;13.90;99.90
19586;DHT22;9939;49.246;9.106;2023-08-06T05:28:29;13.90;99.90
19586;DHT22;9939;49.246;9.106;2023-08-06T05:30:56;14.00;99.90
19586;DHT22;9939;49.246;9.106;2023-08-06T05:33:22;14.00;99.90
19586;DHT22;9939;49.246;9.106;2023-08-06T05:35:49;14.00;99.90
19586;DHT22;9939;49.246;9.106;2023-08-06T05:38:16;14.10;99.90
19586;DHT22;9939;49.246;9.106;2023-08-06T05:40:44;14.10;99.90
19586;DHT22;9939;49.246;9.106;2023-08-06T05:43:11;14.00;99.90
19586;DHT22;9939;49.246;9.106;2023-08-06T05:45:37;14.10;99.90
19586;DHT22;9939;49.246;9.106;2023-08-06T05:48:04;14.10;99.90
19586;DHT22;9939;49.246;9.106;2023-08-06T05:50:31;14.00;99.90
19586;DHT22;9939;49.246;9.106;2023-08-06T05:52:58;14.00;99.90
19586;DHT22;9939;49.246;9.106;2023-08-06T05:55:27;14.10;99.90
19586;DHT22;9939;49.246;9.106;2023-08-06T05:57:54;14.20;99.90
19586;DHT22;9939;49.246;9.106;2023-08-06T06:00:21;14.10;99.90
19586;DHT22;9939;49.246;9.106;2023-08-06T06:02:48;14.20;99.90
19586;DHT22;9939;49.246;9.106;2023-08-06T06:05:15;14.30;99.90
19586;DHT22;9939;49.246;9.106;2023-08-06T06:07:42;14.60;99.90
19586;DHT22;9939;49.246;9.106;2023-08-06T06:10:08;14.90;99.90
19586;DHT22;9939;49.246;9.106;2023-08-06T06:12:35;15.00;99.90
19586;DHT22;9939;49.246;9.106;2023-08-06T06:15:02;15.20;99.90
19586;DHT22;9939;49.246;9.106;2023-08-06T06:17:30;15.10;99.90
19586;DHT22;9939;49.246;9.106;2023-08-06T06:19:56;14.80;99.90
19586;DHT22;9939;49.246;9.106;2023-08-06T06:22:23;14.80;99.90
19586;DHT22;9939;49.246;9.106;2023-08-06T06:24:50;14.70;99.90
19586;DHT22;9939;49.246;9.106;2023-08-06T06:27:16;14.60;99.90
19586;DHT22;9939;49.246;9.106;2023-08-06T06:29:43;14.60;99.90
19586;DHT22;9939;49.246;9.106;2023-08-06T06:32:10;14.60;99.90
19586;DHT22;9939;49.246;9.106;2023-08-06T06:34:37;14.70;99.90
19586;DHT22;9939;49.246;9.106;2023-08-06T06:37:03;14.70;99.90
19586;DHT22;9939;49.246;9.106;2023-08-06T06:39:30;14.60;99.90
19586;DHT22;9939;49.246;9.106;2023-08-06T06:41:57;14.50;99.90
19586;DHT22;9939;49.246;9.106;2023-08-06T06:44:31;14.40;99.90
19586;DHT22;9939;49.246;9.106;2023-08-06T06:46:58;14.30;99.90
19586;DHT22;9939;49.246;9.106;2023-08-06T06:49:24;14.30;99.90
19586;DHT22;9939;49.246;9.106;2023-08-06T06:51:51;14.20;99.90
19586;DHT22;9939;49.246;9.106;2023-08-06T06:54:18;14.20;99.90
19586;DHT22;9939;49.246;9.106;2023-08-06T06:56:45;14.00;99.90
19586;DHT22;9939;49.246;9.106;2023-08-06T06:59:12;14.00;99.90
19586;DHT22;9939;49.246;9.106;2023-08-06T07:01:38;14.00;99.90
19586;DHT22;9939;49.246;9.106;2023-08-06T07:04:05;14.00;99.90
19586;DHT22;9939;49.246;9.106;2023-08-06T07:06:32;14.00;99.90
19586;DHT22;9939;49.246;9.106;2023-08-06T07:08:59;14.10;99.90
19586;DHT22;9939;49.246;9.106;2023-08-06T07:11:26;14.10;99.90
19586;DHT22;9939;49.246;9.106;2023-08-06T07:13:56;14.10;99.90
19586;DHT22;9939;49.246;9.106;2023-08-06T07:16:23;14.30;99.90
19586;DHT22;9939;49.246;9.106;2023-08-06T07:18:53;14.10;99.90
19586;DHT22;9939;49.246;9.106;2023-08-06T07:21:20;14.20;99.90
19586;DHT22;9939;49.246;9.106;2023-08-06T07:23:47;14.20;99.90
19586;DHT22;9939;49.246;9.106;2023-08-06T07:26:16;14.40;99.90
19586;DHT22;9939;49.246;9.106;2023-08-06T07:28:43;14.30;99.90
19586;DHT22;9939;49.246;9.106;2023-08-06T07:31:11;14.20;99.90
19586;DHT22;9939;49.246;9.106;2023-08-06T07:33:38;14.20;99.90
19586;DHT22;9939;49.246;9.106;2023-08-06T07:36:11;14.30;99.90
19586;DHT22;9939;49.246;9.106;2023-08-06T07:38:38;14.30;99.90
19586;DHT22;9939;49.246;9.106;2023-08-06T07:41:05;14.30;99.90
19586;DHT22;9939;49.246;9.106;2023-08-06T07:43:32;14.20;99.90
19586;DHT22;9939;49.246;9.106;2023-08-06T07:45:59;14.30;99.90
19586;DHT22;9939;49.246;9.106;2023-08-06T07:48:28;14.50;99.90
19586;DHT22;9939;49.246;9.106;2023-08-06T07:50:55;14.70;99.90
19586;DHT22;9939;49.246;9.106;2023-08-06T07:53:22;14.90;99.90
19586;DHT22;9939;49.246;9.106;2023-08-06T07:55:53;15.10;99.90
19586;DHT22;9939;49.246;9.106;2023-08-06T07:58:20;15.20;99.90
19586;DHT22;9939;49.246;9.106;2023-08-06T08:00:46;15.00;99.90
19586;DHT22;9939;49.246;9.106;2023-08-06T08:03:14;14.80;99.90
19586;DHT22;9939;49.246;9.106;2023-08-06T08:05:41;14.70;99.90
19586;DHT22;9939;49.246;9.106;2023-08-06T08:08:08;14.50;99.90
19586;DHT22;9939;49.246;9.106;2023-08-06T08:10:35;14.60;99.90
19586;DHT22;9939;49.246;9.106;2023-08-06T08:13:02;14.50;99.90
19586;DHT22;9939;49.246;9.106;2023-08-06T08:15:29;14.40;99.90
19586;DHT22;9939;49.246;9.106;2023-08-06T08:17:56;14.60;99.90
19586;DHT22;9939;49.246;9.106;2023-08-06T08:20:23;14.70;99.90
19586;DHT22;9939;49.246;9.106;2023-08-06T08:22:50;14.80;99.90
19586;DHT22;9939;49.246;9.106;2023-08-06T08:25:17;14.70;99.90
19586;DHT22;9939;49.246;9.106;2023-08-06T08:27:43;14.60;99.90
19586;DHT22;9939;49.246;9.106;2023-08-06T08:30:10;14.90;99.90
19586;DHT22;9939;49.246;9.106;2023-08-06T08:32:37;15.00;99.90
19586;DHT22;9939;49.246;9.106;2023-08-06T08:35:04;15.00;99.90
19586;DHT22;9939;49.246;9.106;2023-08-06T08:37:30;15.10;99.90
19586;DHT22;9939;49.246;9.106;2023-08-06T08:39:57;15.20;99.90
19586;DHT22;9939;49.246;9.106;2023-08-06T08:42:24;15.00;99.90
19586;DHT22;9939;49.246;9.106;2023-08-06T08:44:51;15.00;99.90
19586;DHT22;9939;49.246;9.106;2023-08-06T08:47:18;15.20;99.90
19586;DHT22;9939;49.246;9.106;2023-08-06T08:49:45;15.20;99.90
19586;DHT22;9939;49.246;9.106;2023-08-06T08:52:12;15.20;99.90
19586;DHT22;9939;49.246;9.106;2023-08-06T08:54:41;15.20;99.90
19586;DHT22;9939;49.246;9.106;2023-08-06T08:57:10;15.10;99.90
19586;DHT22;9939;49.246;9.106;2023-08-06T08:59:36;15.10;99.90
19586;DHT22;9939;49.246;9.106;2023-08-06T09:02:03;15.10;99.90
19586;DHT22;9939;49.246;9.106;2023-08-06T09:04:31;15.20;99.90
19586;DHT22;9939;49.246;9.106;2023-08-06T09:07:00;15.30;99.90
19586;DHT22;9939;49.246;9.106;2023-08-06T09:09:36;15.40;99.90
19586;DHT22;9939;49.246;9.106;2023-08-06T09:12:06;15.50;99.90
19586;DHT22;9939;49.246;9.106;2023-08-06T09:14:35;15.70;99.90
19586;DHT22;9939;49.246;9.106;2023-08-06T09:17:03;15.60;99.90
19586;DHT22;9939;49.246;9.106;2023-08-06T09:19:31;15.70;99.90
19586;DHT22;9939;49.246;9.106;2023-08-06T09:21:58;15.80;99.90
19586;DHT22;9939;49.246;9.106;2023-08-06T09:24:25;15.60;99.90
19586;DHT22;9939;49.246;9.106;2023-08-06T09:26:52;15.80;99.90
19586;DHT22;9939;49.246;9.106;2023-08-06T09:29:19;15.80;99.90
19586;DHT22;9939;49.246;9.106;2023-08-06T09:31:47;15.70;99.90
19586;DHT22;9939;49.246;9.106;2023-08-06T09:34:21;15.80;99.90
19586;DHT22;9939;49.246;9.106;2023-08-06T09:36:51;15.90;99.90
19586;DHT22;9939;49.246;9.106;2023-08-06T09:39:18;15.70;99.90
19586;DHT22;9939;49.246;9.106;2023-08-06T09:41:45;15.60;99.90
19586;DHT22;9939;49.246;9.106;2023-08-06T09:44:15;15.50;99.90
19586;DHT22;9939;49.246;9.106;2023-08-06T09:46:42;15.20;99.90
19586;DHT22;9939;49.246;9.106;2023-08-06T09:49:09;15.10;99.90
19586;DHT22;9939;49.246;9.106;2023-08-06T09:51:36;15.20;99.90
19586;DHT22;9939;49.246;9.106;2023-08-06T09:54:06;15.50;99.90
19586;DHT22;9939;49.246;9.106;2023-08-06T09:56:55;16.10;99.90
19586;DHT22;9939;49.246;9.106;2023-08-06T09:59:23;16.40;99.90
19586;DHT22;9939;49.246;9.106;2023-08-06T10:01:49;16.80;99.90
19586;DHT22;9939;49.246;9.106;2023-08-06T10:04:16;16.90;99.90
19586;DHT22;9939;49.246;9.106;2023-08-06T10:06:50;17.30;99.90
19586;DHT22;9939;49.246;9.106;2023-08-06T10:09:19;17.60;99.90
19586;DHT22;9939;49.246;9.106;2023-08-06T10:11:48;17.70;99.90
19586;DHT22;9939;49.246;9.106;2023-08-06T10:14:18;17.10;99.90
19586;DHT22;9939;49.246;9.106;2023-08-06T10:16:46;17.10;99.90
19586;DHT22;9939;49.246;9.106;2023-08-06T10:19:14;17.10;99.90
19586;DHT22;9939;49.246;9.106;2023-08-06T10:22:07;17.10;99.90
19586;DHT22;9939;49.246;9.106;2023-08-06T10:24:44;17.10;99.90
19586;DHT22;9939;49.246;9.106;2023-08-06T10:27:11;17.00;99.90
19586;DHT22;9939;49.246;9.106;2023-08-06T10:29:38;16.80;99.90
19586;DHT22;9939;49.246;9.106;2023-08-06T10:32:05;16.20;99.90
19586;DHT22;9939;49.246;9.106;2023-08-06T10:37:17;15.50;99.90
19586;DHT22;9939;49.246;9.106;2023-08-06T10:39:48;15.40;99.90
19586;DHT22;9939;49.246;9.106;2023-08-06T10:42:20;15.20;99.90
19586;DHT22;9939;49.246;9.106;2023-08-06T10:47:37;14.90;99.90
19586;DHT22;9939;49.246;9.106;2023-08-06T10:50:13;14.50;99.90
19586;DHT22;9939;49.246;9.106;2023-08-06T10:52:40;14.50;99.90
19586;DHT22;9939;49.246;9.106;2023-08-06T10:55:07;14.70;99.90
19586;DHT22;9939;49.246;9.106;2023-08-06T10:57:35;14.80;99.90
19586;DHT22;9939;49.246;9.106;2023-08-06T11:00:03;14.80;99.90
19586;DHT22;9939;49.246;9.106;2023-08-06T11:02:42;14.90;99.90
19586;DHT22;9939;49.246;9.106;2023-08-06T11:05:11;15.00;99.90
19586;DHT22;9939;49.246;9.106;2023-08-06T11:07:38;15.00;99.90
19586;DHT22;9939;49.246;9.106;2023-08-06T11:10:05;15.00;99.90
19586;DHT22;9939;49.246;9.106;2023-08-06T11:12:32;15.00;99.90
19586;DHT22;9939;49.246;9.106;2023-08-06T11:14:59;15.10;99.90
19586;DHT22;9939;49.246;9.106;2023-08-06T11:17:27;15.30;99.90
19586;DHT22;9939;49.246;9.106;2023-08-06T11:19:55;15.40;99.90
19586;DHT22;9939;49.246;9.106;2023-08-06T11:22:22;15.50;99.90
19586;DHT22;9939;49.246;9.106;2023-08-06T11:24:48;15.10;99.90
19586;DHT22;9939;49.246;9.106;2023-08-06T11:27:16;15.00;99.90
19586;DHT22;9939;49.246;9.106;2023-08-06T11:29:43;14.80;99.90
19586;DHT22;9939;49.246;9.106;2023-08-06T11:32:10;14.80;99.90
19586;DHT22;9939;49.246;9.106;2023-08-06T11:34:37;14.90;99.90
19586;DHT22;9939;49.246;9.106;2023-08-06T11:37:04;14.90;99.90
19586;DHT22;9939;49.246;9.106;2023-08-06T11:39:34;14.80;99.90
19586;DHT22;9939;49.246;9.106;2023-08-06T11:42:04;14.80;99.90
19586;DHT22;9939;49.246;9.106;2023-08-06T11:44:32;14.70;99.90
19586;DHT22;9939;49.246;9.106;2023-08-06T11:47:00;14.60;99.90
19586;DHT22;9939;49.246;9.106;2023-08-06T11:49:37;14.50;99.90
19586;DHT22;9939;49.246;9.106;2023-08-06T11:52:11;14.60;99.90
19586;DHT22;9939;49.246;9.106;2023-08-06T11:54:39;14.50;99.90
19586;DHT22;9939;49.246;9.106;2023-08-06T11:57:06;14.40;99.90
19586;DHT22;9939;49.246;9.106;2023-08-06T11:59:33;14.40;99.90
19586;DHT22;9939;49.246;9.106;2023-08-06T12:02:01;14.30;99.90
19586;DHT22;9939;49.246;9.106;2023-08-06T12:04:28;14.30;99.90
19586;DHT22;9939;49.246;9.106;2023-08-06T12:06:55;14.20;99.90
19586;DHT22;9939;49.246;9.106;2023-08-06T12:09:30;14.10;99.90
19586;DHT22;9939;49.246;9.106;2023-08-06T12:11:57;14.00;99.90
19586;DHT22;9939;49.246;9.106;2023-08-06T12:14:24;14.00;99.90
19586;DHT22;9939;49.246;9.106;2023-08-06T12:16:50;14.00;99.90
19586;DHT22;9939;49.246;9.106;2023-08-06T12:19:17;13.90;99.90
19586;DHT22;9939;49.246;9.106;2023-08-06T12:21:44;13.90;99.90
19586;DHT22;9939;49.246;9.106;2023-08-06T12:24:11;14.10;99.90
19586;DHT22;9939;49.246;9.106;2023-08-06T12:26:38;14.00;99.90
19586;DHT22;9939;49.246;9.106;2023-08-06T12:29:04;14.00;99.90
19586;DHT22;9939;49.246;9.106;2023-08-06T12:31:31;13.90;99.90
19586;DHT22;9939;49.246;9.106;2023-08-06T12:33:58;13.90;99.90
19586;DHT22;9939;49.246;9.106;2023-08-06T12:36:24;13.90;99.90
19586;DHT22;9939;49.246;9.106;2023-08-06T12:38:51;14.00;99.90
19586;DHT22;9939;49.246;9.106;2023-08-06T12:41:18;14.00;99.90
19586;DHT22;9939;49.246;9.106;2023-08-06T12:43:45;14.00;99.90
19586;DHT22;9939;49.246;9.106;2023-08-06T12:46:11;14.20;99.90
19586;DHT22;9939;49.246;9.106;2023-08-06T12:48:39;14.20;99.90
19586;DHT22;9939;49.246;9.106;2023-08-06T12:51:05;14.30;99.90
19586;DHT22;9939;49.246;9.106;2023-08-06T12:53:32;14.40;99.90
19586;DHT22;9939;49.246;9.106;2023-08-06T12:55:59;14.50;99.90
19586;DHT22;9939;49.246;9.106;2023-08-06T12:58:26;14.60;99.90
19586;DHT22;9939;49.246;9.106;2023-08-06T13:00:52;14.60;99.90
19586;DHT22;9939;49.246;9.106;2023-08-06T13:03:19;14.70;99.90
19586;DHT22;9939;49.246;9.106;2023-08-06T13:05:46;14.80;99.90
19586;DHT22;9939;49.246;9.106;2023-08-06T13:08:13;15.00;99.90
19586;DHT22;9939;49.246;9.106;2023-08-06T13:10:39;14.90;99.90
19586;DHT22;9939;49.246;9.106;2023-08-06T13:13:06;15.00;99.90
19586;DHT22;9939;49.246;9.106;2023-08-06T13:15:33;14.90;99.90
19586;DHT22;9939;49.246;9.106;2023-08-06T13:17:59;14.60;99.90
19586;DHT22;9939;49.246;9.106;2023-08-06T13:20:26;14.50;99.90
19586;DHT22;9939;49.246;9.106;2023-08-06T13:22:54;14.30;99.90
19586;DHT22;9939;49.246;9.106;2023-08-06T13:25:21;14.20;99.90
19586;DHT22;9939;49.246;9.106;2023-08-06T13:27:48;14.40;99.90
19586;DHT22;9939;49.246;9.106;2023-08-06T13:30:15;14.70;99.90
19586;DHT22;9939;49.246;9.106;2023-08-06T13:32:43;15.20;99.90
19586;DHT22;9939;49.246;9.106;2023-08-06T13:35:10;15.60;99.90
19586;DHT22;9939;49.246;9.106;2023-08-06T13:37:37;15.50;99.90
19586;DHT22;9939;49.246;9.106;2023-08-06T13:40:04;15.70;99.90
19586;DHT22;9939;49.246;9.106;2023-08-06T13:42:31;16.10;99.90
19586;DHT22;9939;49.246;9.106;2023-08-06T13:44:58;16.20;99.90
19586;DHT22;9939;49.246;9.106;2023-08-06T13:47:29;15.90;99.90
19586;DHT22;9939;49.246;9.106;2023-08-06T13:49:56;15.80;99.90
19586;DHT22;9939;49.246;9.106;2023-08-06T13:52:25;15.50;99.90
19586;DHT22;9939;49.246;9.106;2023-08-06T13:54:52;15.30;99.90
19586;DHT22;9939;49.246;9.106;2023-08-06T13:57:18;15.20;99.90
19586;DHT22;9939;49.246;9.106;2023-08-06T13:59:45;15.00;99.90
19586;DHT22;9939;49.246;9.106;2023-08-06T14:02:12;15.00;99.90
19586;DHT22;9939;49.246;9.106;2023-08-06T14:04:39;15.30;99.90
19586;DHT22;9939;49.246;9.106;2023-08-06T14:07:06;15.20;99.90
19586;DHT22;9939;49.246;9.106;2023-08-06T14:09:33;15.20;99.90
19586;DHT22;9939;49.246;9.106;2023-08-06T14:12:00;15.10;99.90
19586;DHT22;9939;49.246;9.106;2023-08-06T14:14:27;15.70;99.90
19586;DHT22;9939;49.246;9.106;2023-08-06T14:16:54;16.60;99.90
19586;DHT22;9939;49.246;9.106;2023-08-06T14:19:22;17.10;99.90
19586;DHT22;9939;49.246;9.106;2023-08-06T14:21:52;17.10;99.90
19586;DHT22;9939;49.246;9.106;2023-08-06T14:24:19;17.00;99.90
19586;DHT22;9939;49.246;9.106;2023-08-06T14:26:45;17.00;99.90
19586;DHT22;9939;49.246;9.106;2023-08-06T14:29:12;17.30;99.90
19586;DHT22;9939;49.246;9.106;2023-08-06T14:31:40;19.30;99.90
19586;DHT22;9939;49.246;9.106;2023-08-06T14:34:07;20.50;99.90
19586;DHT22;9939;49.246;9.106;2023-08-06T14:36:33;20.40;99.90
19586;DHT22;9939;49.246;9.106;2023-08-06T14:39:00;19.60;99.90
19586;DHT22;9939;49.246;9.106;2023-08-06T14:41:27;18.30;99.90
19586;DHT22;9939;49.246;9.106;2023-08-06T14:43:54;17.60;99.90
19586;DHT22;9939;49.246;9.106;2023-08-06T14:46:21;17.30;99.90
19586;DHT22;9939;49.246;9.106;2023-08-06T14:48:48;17.20;99.90
19586;DHT22;9939;49.246;9.106;2023-08-06T14:51:14;17.30;99.90
19586;DHT22;9939;49.246;9.106;2023-08-06T14:53:41;16.90;99.90
19586;DHT22;9939;49.246;9.106;2023-08-06T14:56:08;16.80;99.90
19586;DHT22;9939;49.246;9.106;2023-08-06T14:58:35;16.60;99.90
19586;DHT22;9939;49.246;9.106;2023-08-06T15:01:02;16.30;99.90
19586;DHT22;9939;49.246;9.106;2023-08-06T15:03:28;16.20;99.90
19586;DHT22;9939;49.246;9.106;2023-08-06T15:05:57;16.00;99.90
19586;DHT22;9939;49.246;9.106;2023-08-06T15:08:24;16.00;99.90
19586;DHT22;9939;49.246;9.106;2023-08-06T15:10:51;16.10;99.90
19586;DHT22;9939;49.246;9.106;2023-08-06T15:13:18;16.10;99.90
19586;DHT22;9939;49.246;9.106;2023-08-06T15:15:46;16.60;99.90
19586;DHT22;9939;49.246;9.106;2023-08-06T15:18:13;16.80;99.90
19586;DHT22;9939;49.246;9.106;2023-08-06T15:20:39;16.80;99.90
19586;DHT22;9939;49.246;9.106;2023-08-06T15:23:06;16.80;99.90
19586;DHT22;9939;49.246;9.106;2023-08-06T15:25:33;16.20;99.90
19586;DHT22;9939;49.246;9.106;2023-08-06T15:27:59;15.90;99.90
19586;DHT22;9939;49.246;9.106;2023-08-06T15:30:26;15.50;99.90
19586;DHT22;9939;49.246;9.106;2023-08-06T15:32:53;15.20;99.90
19586;DHT22;9939;49.246;9.106;2023-08-06T15:35:20;15.20;99.90
19586;DHT22;9939;49.246;9.106;2023-08-06T15:37:47;15.10;99.90
19586;DHT22;9939;49.246;9.106;2023-08-06T15:40:13;14.90;99.90
19586;DHT22;9939;49.246;9.106;2023-08-06T15:42:40;14.50;99.90
19586;DHT22;9939;49.246;9.106;2023-08-06T15:45:07;14.30;99.90
19586;DHT22;9939;49.246;9.106;2023-08-06T15:47:34;14.10;99.90
19586;DHT22;9939;49.246;9.106;2023-08-06T15:50:07;14.00;99.90
19586;DHT22;9939;49.246;9.106;2023-08-06T15:52:34;14.10;99.90